Tiempo atmosférico en la estación meteorológica de Córdoba Aeropuerto, Córdoba (90 m.)

Fecha
DESCASC
Temp. máxima en grados centígrados (hora)
DESCASC
Temp. mínima en grados centígrados (hora)
DESCASC
Temp. media en grados centígrados
DESCASC
Racha de viento máxima en m/sg (hora)
DESCASC
Velocidad máxima media en intervalos de 10 minutos(hora)
DESCASC
Precipitaciones diarias en mm
DESCASC
Precipitaciones de 00:00 a 06:00 en mm
DESCASC
Precipitaciones de 06:00 a 12:00 en mm
DESCASC
Precipitaciones de 12:00 a 18:00 en mm
DESCASC
Precipitaciones de 18:00 a 24:00 en mm
DESCASC
21-08-2017 40.2 (17:00) 22.3 (08:00) 31.3 9.17 (18:10) 5.56 (16:00) 0 0 0 0 0
20-08-2017 42 (17:00) 22 (07:40) 32 8.33 (18:20) 5.56 (20:40) 0 0 0 0 0
19-08-2017 42.9 (17:20) 21 (07:50) 32 7.22 (16:10) 5 (22:40) 0 0 0 0 0
18-08-2017 41.9 (17:00) 21.8 (07:50) 31.9 7.78 (15:40) 3.89 (00:10) 0 0 0 0 0
17-08-2017 41.8 (17:20) 18 (00:00) 29.9 7.22 (16:50) 4.72 (17:50) 0 0 0 0 0
16-08-2017 40.6 (18:20) 19.1 (00:00) 29.8 8.89 (17:50) 5.28 (16:30) 0 0 0 0 0
15-08-2017 39.4 (19:00) 22.4 (00:00) 30.9 8.33 (01:40) 5.28 (01:50) 0 0 0 0 0
14-08-2017 38.4 (17:40) 21.5 (07:40) 30 8.89 (16:50) 5.28 (16:50) 0 0 0 0 0
13-08-2017 39.3 (17:00) 19.4 (00:00) 29.3 8.89 (20:10) 5.28 (20:10) 0 0 0 0 0
12-08-2017 39.3 (17:10) 18.5 (00:00) 28.9 9.72 (19:40) 6.67 (19:20) 0 0 0 0 0
11-08-2017 38.4 (17:40) 18.8 (00:00) 28.6 6.11 (22:30) 3.89 (22:40) 0 0 0 0 0
10-08-2017 37.1 (16:50) 16.8 (00:00) 26.9 9.17 (11:20) 6.11 (11:00) 0 0 0 0 0
09-08-2017 36 (16:50) 16.3 (00:00) 26.1 10.83 (00:10) 5.83 (23:40) 0 0 0 0 0
08-08-2017 38.1 (16:40) 18.3 (00:00) 28.2 12.5 (16:50) 7.22 (17:40) 0 0 0 0 0
07-08-2017 41 (16:10) 21.7 (00:00) 31.4 9.72 (19:10) 6.39 (18:00) -- 0 0 -- 0
06-08-2017 42.7 (17:30) 20.5 (00:00) 31.6 8.33 (15:20) 5.83 (23:40) 0 0 0 0 0
05-08-2017 44 (17:50) 23.4 (00:00) 33.7 9.72 (16:40) 5.83 (16:40) 0 0 0 0 0
04-08-2017 44.7 (16:40) 20 (00:00) 32.4 6.67 (00:50) 3.06 (13:00) 0 0 0 0 0
03-08-2017 42.8 (17:20) 17.9 (00:00) 30.3 8.89 (23:40) 5 (18:50) 0 0 0 0 0
02-08-2017 40.3 (17:30) 16.8 (00:00) 28.5 6.11 (16:00) 3.89 (18:00) 0 0 0 0 0
01-08-2017 36 (18:10) 19.9 (00:00) 27.9 8.89 (16:10) 5.83 (16:10) 0 0 0 0 0
31-07-2017 38.2 (16:40) 19.4 (00:00) 28.8 9.72 (19:10) 6.39 (19:20) 0 0 0 0 0
30-07-2017 41.9 (17:00) 20.5 (00:00) 31.2 9.72 (16:20) 5.83 (18:20) 0 0 0 0 0
29-07-2017 42.4 (16:40) 18.3 (00:00) 30.4 8.89 (15:50) 5.83 (18:50) 0 0 0 0 0
28-07-2017 42.7 (18:00) 19.4 (00:00) 31.1 7.22 (16:30) 5.28 (19:40) 0 0 0 0 0
27-07-2017 40.9 (17:20) 19.5 (00:00) 30.2 7.78 (18:40) 4.72 (19:20) 0 0 0 0 0
26-07-2017 35.3 (19:20) 19.2 (00:00) 27.3 8.33 (14:00) 4.72 (12:00) 0 0 0 0 0
25-07-2017 40.5 (16:40) 19.2 (00:00) 29.9 11.67 (20:50) 7.78 (20:50) 0 0 0 0 0
24-07-2017 40.6 (17:50) 18.1 (00:00) 29.3 10.83 (18:40) 6.67 (18:40) 0 0 0 0 0
23-07-2017 39.6 (17:10) 17.5 (00:00) 28.5 7.78 (22:40) 5.28 (22:50) 0 0 0 0 0

Gráficas

Temp. máximas Temp. mínimas Temp. medias Precipitaciones Rachas de viento máximas Velocidades máximas media en intervalos de 10 minutos

Datos horarios

Fecha y hora oficial Temperatura (ºC) Velocidad del viento (km/h) Dirección del viento Racha (km/h) Dirección de racha Precipitación (mm) Presión (hPa) Tendencia (hPa) Humedad (%)
2017-08-21 23:00:00 31.1 10 Sur 22 Sur 0 1004 2.2 30
2017-08-21 22:00:00 32.4 6 Noroeste 22 Sur 0 1003 1 28
2017-08-21 21:00:00 35.5 13 Sur 24 Sur 0 1002.1 0 22
2017-08-21 20:00:00 39 7 Oeste 15 Oeste 0 1001.8 -0.9 17
2017-08-21 19:00:00 39.8 9 Sudoeste 33 Sur 0 1002 -1.6 14
2017-08-21 18:00:00 40 4 Sur 26 Sudeste 0 1002.1 -2 14
2017-08-21 17:00:00 40.1 13 Sur 30 Sur 0 1002.7 -2.2 15
2017-08-21 16:00:00 39.4 20 Sur 30 Sudoeste 0 1003.6 -2.2 17
2017-08-21 15:00:00 38.3 11 Sur 26 Sudoeste 0 1004.1 -2.1 22
2017-08-21 14:00:00 36.1 4 Sur 15 Sur 0 1004.9 -1.7 31
2017-08-21 13:00:00 34.8 4 Sudoeste 13 Sur 0 1005.8 -1 34
2017-08-21 12:00:00 32.8 4 Nordeste 13 Este 0 1006.2 -0.4 40
2017-08-21 11:00:00 30.3 3 Oeste 18 Sudoeste 0 1006.6 0.3 49
2017-08-21 10:00:00 28.1 4 Sudoeste 13 Oeste 0 1006.8 0.7 57
2017-08-21 09:00:00 25.3 0 Calma 4 Oeste 0 1006.6 0.5 65
2017-08-21 08:00:00 22.4 0 Calma 4 Oeste 0 1006.3 0.2 71
2017-08-21 07:00:00 23.3 0 Calma -- -- 0 1006.1 -0.1 71
2017-08-21 06:00:00 23.8 0 Calma 5 Sudoeste 0 1006.1 0 66
2017-08-21 05:00:00 24.5 0 Calma 11 Noroeste 0 1006.1 0.1 66
2017-08-21 04:00:00 25.3 2 Oeste 13 Oeste 0 1006.2 0.7 64
2017-08-21 03:00:00 25.8 6 Noroeste 18 Sudoeste 0 1006.1 1 63
2017-08-21 02:00:00 27.3 11 Sudoeste 22 Sudoeste 0 1006 1.5 56
2017-08-21 01:00:00 27.9 8 Oeste 18 Oeste 0 1005.5 1.8 54
2017-08-21 00:00:00 29.5 15 Oeste 24 Oeste 0 1005.1 2.3 46
2017-08-20 23:00:00 30.7 11 Oeste 21 Sudoeste 0 1004.5 2.1 39
2017-08-20 22:00:00 32.5 8 Sudoeste 22 Sur 0 1003.7 1.2 33
2017-08-20 21:00:00 35 17 Sur 30 Sur 0 1002.8 -0.1 26
2017-08-20 20:00:00 39.1 16 Sur 28 Sudoeste 0 1002.4 -0.9 19
2017-08-20 19:00:00 40.7 13 Sur 30 Sudoeste 0 1002.5 -1.5 16
2017-08-20 18:00:00 41.4 16 Sur 28 Sudoeste 0 1002.9 -1.8 17
2017-08-20 17:00:00 42 8 Sur 22 Sudoeste 0 1003.3 -2 17
2017-08-20 16:00:00 40.5 5 Norte 22 Sudoeste 0 1004 -1.9 19
2017-08-20 15:00:00 39.8 6 Sur 17 Sur 0 1004.7 -1.8 21
2017-08-20 14:00:00 37.5 7 Sudeste 17 Este 0 1005.3 -1.4 26
2017-08-20 13:00:00 34.5 5 Nordeste 18 Nordeste 0 1005.9 -0.7 34
2017-08-20 12:00:00 32.8 6 Este 15 Este 0 1006.5 0.1 39
2017-08-20 11:00:00 30.7 3 Nordeste 13 Este 0 1006.7 0.7 45
2017-08-20 10:00:00 29.1 0 Calma 4 Sudeste 0 1006.6 1 47
2017-08-20 09:00:00 24.8 0 Calma 5 Sudoeste 0 1006.4 1.1 57
2017-08-20 08:00:00 22.2 0 Calma 5 Sudoeste 0 1006 0.9 67
2017-08-20 07:00:00 22.9 3 Sur 5 Sur 0 1005.6 0.8 62
2017-08-20 06:00:00 23.3 0 Calma 8 Oeste 0 1005.3 0.6 61
2017-08-20 05:00:00 24.3 7 Sudoeste 13 Oeste 0 1005.1 0.4 56
2017-08-20 04:00:00 25.9 8 Oeste 15 Oeste 0 1004.8 0.4 52
2017-08-20 03:00:00 26.3 8 Oeste 15 Oeste 0 1004.7 0.6 51
2017-08-20 02:00:00 27.3 7 Oeste 15 Oeste 0 1004.7 1.2 48
2017-08-20 01:00:00 28.7 6 Sudoeste 17 Oeste 0 1004.4 2.1 43
2017-08-20 00:00:00 30.3 9 Oeste 17 Oeste 0 1004.1 2.7 39
2017-08-19 23:00:00 32.4 13 Oeste 26 Oeste 0 1003.5 2.4 32
2017-08-19 22:00:00 33.4 15 Oeste 24 Oeste 0 1002.3 1.3 24
2017-08-19 21:00:00 36.8 8 Oeste 15 Sudoeste 0 1001.4 0.1 19
2017-08-19 20:00:00 40.5 12 Oeste 21 Oeste 0 1001.1 -0.5 13
2017-08-19 19:00:00 42.2 14 Sudoeste 21 Sudoeste 0 1001 -1.2 12
2017-08-19 18:00:00 42.4 10 Oeste 24 Sudoeste 0 1001.3 -1.5 13
2017-08-19 17:00:00 42.7 5 Sudoeste 26 Oeste 0 1001.6 -1.6 13
2017-08-19 16:00:00 41.7 11 Oeste 24 Sudoeste 0 1002.2 -1.6 15
2017-08-19 15:00:00 40.3 9 Sudoeste 22 Oeste 0 1002.8 -1.6 18
2017-08-19 14:00:00 38.3 5 Sudoeste 17 Oeste 0 1003.2 -1.3 21
2017-08-19 13:00:00 36.9 2 Sur 11 Este 0 1003.8 -0.8 22
2017-08-19 12:00:00 33.7 3 Este 13 Nordeste 0 1004.4 0 28
2017-08-19 11:00:00 31 2 Este 8 Sudeste 0 1004.5 0.4 33
2017-08-19 10:00:00 26.3 2 Este 5 Sudeste 0 1004.6 1.2 48
2017-08-19 09:00:00 22.8 0 Calma 2 Sudeste 0 1004.4 0.9 61
2017-08-19 08:00:00 21 0 Calma 2 Sudeste 0 1004.1 0.6 69
2017-08-19 07:00:00 21.5 0 Calma 4 Oeste 0 1003.4 0 65
2017-08-19 06:00:00 22.4 3 Sudoeste 4 Sur 0 1003.5 0.1 59
2017-08-19 05:00:00 23.7 0 Calma 8 Noroeste 0 1003.5 0.3 56
2017-08-19 04:00:00 24.1 6 Noroeste 11 Oeste 0 1003.4 0.4 55
2017-08-19 03:00:00 26.2 5 Oeste 17 Oeste 0 1003.4 0.6 48
2017-08-19 02:00:00 28.3 11 Oeste 18 Oeste 0 1003.2 0.6 41
2017-08-19 01:00:00 29.5 11 Oeste 21 Sudoeste 0 1003 1 37
2017-08-19 00:00:00 29.3 6 Sudoeste 11 Sudoeste 0 1002.8 1.4 33
2017-08-18 23:00:00 30 9 Sudoeste 13 Sudoeste 0 1002.6 1.5 31
2017-08-18 22:00:00 32.2 -- -- -- -- 0 1002 0.6 27
2017-08-18 21:00:00 36.8 9 Oeste 17 Oeste 0 1001.4 -0.4 20
2017-08-18 20:00:00 40.1 10 Oeste 18 Oeste 0 1001.1 -1 14
2017-08-18 19:00:00 41.1 10 Sudoeste 21 Sudoeste 0 1001.4 -1.6 13
2017-08-18 18:00:00 41.2 8 Oeste 26 Oeste 0 1001.8 -1.9 14
2017-08-18 17:00:00 41.6 10 Oeste 26 Oeste 0 1002.1 -2.5 14
2017-08-18 16:00:00 40.7 14 Oeste 28 Oeste 0 1003 -2.5 18
2017-08-18 15:00:00 39.4 12 Oeste 22 Oeste 0 1003.7 -2.3 18
2017-08-18 14:00:00 37.8 3 Oeste 15 Sudoeste 0 1004.6 -1.8 25
2017-08-18 13:00:00 35.7 0 Calma 17 Sudeste 0 1005.5 -0.8 29
2017-08-18 12:00:00 33.2 0 Calma 11 Sudeste 0 1006 -0.1 34
2017-08-18 11:00:00 30.4 2 Este 8 Sudeste 0 1006.4 0.9 42
2017-08-18 10:00:00 28.5 0 Calma 4 Sur 0 1006.3 1.1 48
2017-08-18 09:00:00 24.6 0 Calma -- -- 0 1006.1 1.1 58
2017-08-18 08:00:00 21.9 0 Calma 4 Norte 0 1005.5 0.3 66
2017-08-18 07:00:00 22.3 0 Calma 8 Sur 0 1005.2 -0.2 67
2017-08-18 06:00:00 23.3 5 Sur 13 Sur 0 1005 -0.4 63
2017-08-18 05:00:00 23.8 7 Sudoeste 13 Oeste 0 1005.2 -0.4 59
2017-08-18 04:00:00 24.5 5 Oeste 11 Sudoeste 0 1005.4 0.1 51
2017-08-18 03:00:00 26.1 6 Oeste 13 Oeste 0 1005.4 0.8 46
2017-08-18 02:00:00 26.8 6 Oeste 11 Oeste 0 1005.6 1.6 37
2017-08-18 01:00:00 27.5 5 Oeste 24 Sudoeste 0 1005.3 2.1 31
2017-08-18 00:00:00 30.4 15 Sudoeste 24 Sudoeste 0 1004.6 1.8 24
2017-08-17 23:00:00 28.5 5 Sudoeste 9 Oeste 0 1004 1.3 28
2017-08-17 22:00:00 30.9 5 Oeste 13 Oeste 0 1003.2 0.4 25
2017-08-17 21:00:00 35.8 11 Oeste 22 Oeste 0 1002.8 -0.3 16
2017-08-17 20:00:00 39.3 14 Oeste 24 Oeste 0 1002.7 -0.9 12
2017-08-17 19:00:00 40.8 15 Oeste 26 Oeste 0 1002.8 -1.4 12
2017-08-17 18:00:00 41.5 12 Oeste 26 Oeste 0 1003.1 -1.8 11
2017-08-17 17:00:00 41.5 14 Oeste 26 Oeste 0 1003.6 -2.1 11
2017-08-17 16:00:00 41.2 13 Oeste 24 Oeste 0 1004.2 -2.2 11
2017-08-17 15:00:00 40.3 7 Oeste 21 Oeste 0 1004.9 -2 11
2017-08-17 14:00:00 38.6 6 Sudoeste 17 Sudoeste 0 1005.7 -1.3 12
2017-08-17 13:00:00 36.9 3 Sudeste 13 Nordeste 0 1006.4 -0.7 14
2017-08-17 12:00:00 33.8 5 Este 13 Nordeste 0 1006.9 0 16
2017-08-17 11:00:00 29.7 5 Nordeste 15 Nordeste 0 1007 0.5 21
2017-08-17 10:00:00 26.5 4 Este 11 Este 0 1007.1 1.1 27
2017-08-17 09:00:00 21.5 0 Calma -- -- 0 1006.9 1.2 40
2017-08-17 08:00:00 18 0 Calma -- -- 0 1006.5 0.8 54
2017-08-17 07:00:00 18.7 0 Calma -- -- 0 1006 0.3 56
2017-08-17 06:00:00 19.3 0 Calma -- -- 0 1005.7 -0.2 54
2017-08-17 05:00:00 20.3 0 Calma -- -- 0 1005.7 -0.3 46
2017-08-17 04:00:00 21.2 0 Calma 4 Nordeste 0 1005.7 -0.1 52
2017-08-17 03:00:00 22.5 2 Norte 4 Norte 0 1005.9 0.3 44
2017-08-17 02:00:00 24.1 0 Calma 5 Oeste 0 1006 0.7 38
2017-08-17 01:00:00 25.2 0 Calma 11 Oeste 0 1005.8 1 33
2017-08-17 00:00:00 27.2 2 Oeste 8 Sur 0 1005.6 1.3 27
2017-08-16 23:00:00 28.2 0 Calma 8 Sur 0 1005.3 1.3 24
2017-08-16 22:00:00 30.8 0 Calma 9 Oeste 0 1004.8 0.8 22
2017-08-16 21:00:00 35.9 8 Oeste 17 Oeste 0 1004.3 0 12
2017-08-16 20:00:00 39.2 12 Oeste 24 Sudoeste 0 1004 -0.8 9
2017-08-16 19:00:00 40.2 19 Sudoeste 30 Sudoeste 0 1004 -1.6 9
2017-08-16 18:00:00 40.2 17 Sudoeste 32 Sudoeste 0 1004.3 -1.6 10
2017-08-16 17:00:00 40.2 17 Sudoeste 30 Sudoeste 0 1004.8 -1.9 11
2017-08-16 16:00:00 39.5 15 Oeste 30 Oeste 0 1005.6 -1.8 11
2017-08-16 15:00:00 38.6 13 Sudoeste 22 Sudoeste 0 1005.9 -2.1 13
2017-08-16 14:00:00 37.2 7 Oeste 18 Oeste 0 1006.7 -1.5 15
2017-08-16 13:00:00 35.1 3 Oeste -- -- -- 1007.4 -0.8 19
2017-08-16 12:00:00 32.6 2 Sudoeste 11 Sur 0 1008 -0.2 25
2017-08-16 11:00:00 29.6 2 Sudoeste 8 Sudeste 0 1008.2 0.5 33
2017-08-16 10:00:00 26.4 0 Calma 4 Sur 0 1008.2 0.8 44
2017-08-16 09:00:00 22.5 0 Calma -- -- 0 1008.2 1.2 56
2017-08-16 08:00:00 19.2 0 Calma 2 Sur 0 1007.7 0.6 67
2017-08-16 07:00:00 19.7 0 Calma 4 Sur 0 1007.4 0.3 69
2017-08-16 06:00:00 20.3 0 Calma 5 Sur 0 1007 0.1 64
2017-08-16 05:00:00 21.1 0 Calma 5 Oeste 0 1007.1 0.3 63
2017-08-16 04:00:00 22.1 0 Calma 8 Noroeste 0 1007.1 0.6 60
2017-08-16 03:00:00 23.4 7 Noroeste 15 Sudoeste 0 1006.9 0.7 52
2017-08-16 02:00:00 25.7 13 Sudoeste 22 Oeste 0 1006.8 1.2 41
2017-08-16 01:00:00 27.6 16 Oeste 24 Oeste 0 1006.5 2 39
2017-08-16 00:00:00 29 12 Oeste 18 Oeste 0 1006.2 2.5 41
2017-08-15 23:00:00 31.2 9 Oeste 26 Oeste 0 1005.6 2.4 34
2017-08-15 22:00:00 32.6 7 Oeste 18 Oeste 0 1004.5 1.5 30
2017-08-15 21:00:00 35.5 13 Oeste 21 Oeste 0 1003.7 0.4 25
2017-08-15 20:00:00 37.8 15 Oeste 24 Oeste 0 1003.2 -0.7 21
2017-08-15 19:00:00 39.3 13 Oeste 21 Oeste 0 1003 -1.6 20
2017-08-15 18:00:00 38.9 15 Sudoeste 24 Oeste 0 1003.3 -1.8 20
2017-08-15 17:00:00 38.6 10 Sudoeste 26 Oeste 0 1003.9 -1.9 21
2017-08-15 16:00:00 37.8 14 Sudoeste 24 Sudoeste 0 1004.6 -1.8 22
2017-08-15 15:00:00 36.2 13 Sudoeste 24 Oeste 0 1005.1 -1.9 27
2017-08-15 14:00:00 34.6 8 Oeste 24 Oeste 0 1005.8 -1.3 30
2017-08-15 13:00:00 32.6 8 Oeste 18 Oeste 0 1006.4 -0.3 38
2017-08-15 12:00:00 30.7 5 Noroeste 17 Noroeste 0 1007 0.4 46
2017-08-15 11:00:00 28.9 4 Oeste 15 Oeste 0 1007.1 0.9 52
2017-08-15 10:00:00 27.2 2 Sudoeste 8 Oeste 0 1006.7 1 58
2017-08-15 09:00:00 24.7 0 Calma 4 Sur 0 1006.6 1.3 67
2017-08-15 08:00:00 22.5 0 Calma 8 Sur 0 1006.2 1 73
2017-08-15 07:00:00 22.5 3 Oeste 5 Oeste 0 1005.7 0.6 73
2017-08-15 06:00:00 23.2 4 Oeste 11 Oeste 0 1005.3 0.1 70
2017-08-15 05:00:00 24.6 4 Sudoeste 21 Sudoeste 0 1005.2 0.2 66
2017-08-15 04:00:00 25.4 12 Sudoeste 22 Sudoeste 0 1005.1 0.8 62
2017-08-15 03:00:00 26 5 Oeste 21 Oeste 0 1005.2 1.3 56
2017-08-15 02:00:00 27.5 16 Sudoeste 30 Sudoeste 0 1005 2.1 52
2017-08-15 01:00:00 28.4 15 Sudoeste 26 Oeste 0 1004.3 2.4 46
2017-08-15 00:00:00 29.5 6 Sudoeste 18 Sudoeste 0 1003.9 2.7 39
2017-08-14 23:00:00 30.9 4 Sur 18 Sur 0 1002.9 2.2 35
2017-08-14 22:00:00 31.9 5 Sur 22 Sur 0 1001.9 1.2 30
2017-08-14 21:00:00 35 4 Oeste 18 Oeste 0 1001.2 0.1 23
2017-08-14 20:00:00 36.9 8 Oeste 21 Oeste 0 1000.7 -0.8 20
2017-08-14 19:00:00 38 13 Sur 28 Sudoeste 0 1000.7 -1.1 20
2017-08-14 18:00:00 38.1 16 Sur 30 Sudoeste 0 1001.1 -1.3 20
2017-08-14 17:00:00 37.8 16 Sur 32 Sudoeste 0 1001.5 -1.6 21
2017-08-14 16:00:00 37.4 4 Oeste 22 Oeste 0 1001.8 -1.9 23
2017-08-14 15:00:00 36.4 14 Sudoeste 26 Sudoeste 0 1002.4 -1.5 25
2017-08-14 14:00:00 34.4 5 Oeste 17 Oeste 0 1003.1 -1 30
2017-08-14 13:00:00 32.7 5 Sudoeste 18 Sur 0 1003.7 -0.5 33
2017-08-14 12:00:00 31.4 0 Calma 11 Sudeste 0 1003.9 -0.2 37
2017-08-14 11:00:00 29.8 0 Calma 5 Sur 0 1004.1 0.6 44
2017-08-14 10:00:00 26.6 0 Calma -- -- 0 1004.2 0.9 52
2017-08-14 09:00:00 24.7 0 Calma -- -- 0 1004.1 0.6 58
2017-08-14 08:00:00 21.7 0 Calma -- -- 0 1003.5 -0.3 70
2017-08-14 07:00:00 22.1 0 Calma -- -- 0 1003.3 -0.7 69
2017-08-14 06:00:00 22.4 0 Calma 5 Sudeste 0 1003.5 -0.7 68
2017-08-14 05:00:00 23.2 0 Calma 11 Oeste 0 1003.8 -0.1 64
2017-08-14 04:00:00 24.1 7 Oeste 21 Sudoeste 0 1004 0.2 61
2017-08-14 03:00:00 24.8 8 Oeste 18 Oeste 0 1004.2 0.4 53
2017-08-14 02:00:00 25.1 6 Oeste 15 Oeste 0 1003.9 0.9 50
2017-08-14 01:00:00 25.4 8 Oeste 15 Oeste 0 1003.8 2 50
2017-08-14 00:00:00 26.8 12 Oeste 21 Sudoeste 0 1003.8 2.9 47
2017-08-13 23:00:00 28.5 10 Oeste 18 Oeste 0 1003 2.5 39
2017-08-13 22:00:00 30.8 10 Oeste 24 Sudoeste 0 1001.8 1.3 30
2017-08-13 21:00:00 33.5 16 Sudoeste 32 Sudoeste 0 1000.9 0 22
2017-08-13 20:00:00 36.5 17 Sudoeste 28 Sur 0 1000.5 -0.9 19
2017-08-13 19:00:00 38.6 13 Sudoeste 22 Sudoeste 0 1000.5 -1.6 16
2017-08-13 18:00:00 39.1 14 Sudoeste 22 Oeste 0 1000.9 -2.1 15
2017-08-13 17:00:00 39.1 8 Sudoeste 18 Oeste 0 1001.4 -2.4 18
2017-08-13 16:00:00 38.3 3 Oeste 21 Sur 0 1002.1 -2.7 19
2017-08-13 15:00:00 36.9 3 Sudeste 17 Sudeste 0 1003 -2.4 22
2017-08-13 14:00:00 33.8 0 Calma 15 Noroeste 0 1003.8 -2.2 28
2017-08-13 13:00:00 32.9 0 Calma 18 Este 0 1004.8 -1.1 30
2017-08-13 12:00:00 31 6 Este 15 Este 0 1005.4 -0.4 34
2017-08-13 11:00:00 28.4 0 Calma 8 Este 0 1006 0.6 42
2017-08-13 10:00:00 27.1 0 Calma 5 Este 0 1005.9 0.6 45
2017-08-13 09:00:00 23.4 0 Calma 4 Norte 0 1005.8 0.4 54
2017-08-13 08:00:00 20 0 Calma -- -- 0 1005.4 -0.1 65
2017-08-13 07:00:00 20.3 0 Calma 2 Oeste 0 1005.3 -0.2 60
2017-08-13 06:00:00 20.1 0 Calma 11 Oeste 0 1005.4 -0.5 65
2017-08-13 05:00:00 21.8 6 Sudoeste 13 Noroeste 0 1005.5 -0.5 54
2017-08-13 04:00:00 23 0 Calma 2 Sudeste 0 1005.5 -0.4 52
2017-08-13 03:00:00 23.9 0 Calma 11 Sudeste 0 1005.9 0.1 48
2017-08-13 02:00:00 23.2 4 Oeste 15 Oeste 0 1006 0.5 49
2017-08-13 01:00:00 24.1 8 Oeste 13 Oeste 0 1005.9 1.1 45
2017-08-13 00:00:00 25.9 5 Sudoeste 15 Sudoeste 0 1005.8 1.6 40
2017-08-12 23:00:00 27.8 5 Oeste 18 Oeste 0 1005.5 1.5 34
2017-08-12 22:00:00 30.3 6 Sudoeste 28 Oeste 0 1004.8 1 28
2017-08-12 21:00:00 33 12 Sudoeste 30 Sudoeste 0 1004.2 0 22
2017-08-12 20:00:00 35.6 21 Sudoeste 35 Sudoeste 0 1004 -0.7 18
2017-08-12 19:00:00 38.3 15 Sudoeste 26 Sudoeste 0 1003.8 -1.6 16
2017-08-12 18:00:00 38.4 0 Calma 18 Sudeste 0 1004.2 -2 15
2017-08-12 17:00:00 38.7 3 Sur 18 Sur 0 1004.7 -2.3 16
2017-08-12 16:00:00 37.4 5 Sudeste 33 Este 0 1005.4 -2.2 19
2017-08-12 15:00:00 36.9 4 Sudeste 17 Sudeste 0 1006.2 -1.9 21
2017-08-12 14:00:00 34.9 8 Sudeste 17 Este 0 1007 -1.2 24
2017-08-12 13:00:00 32.8 4 Nordeste 13 Nordeste 0 1007.6 -0.8 28
2017-08-12 12:00:00 31.5 0 Calma 11 Sur 0 1008.1 -0.1 31
2017-08-12 11:00:00 28.9 0 Calma 8 Sudeste 0 1008.2 0.7 36
2017-08-12 10:00:00 27.3 2 Este 8 Este 0 1008.4 1.3 40
2017-08-12 09:00:00 23.5 0 Calma 2 Nordeste 0 1008.2 1.2 48
2017-08-12 08:00:00 19.1 0 Calma 5 Sur 0 1007.5 0.5 68
2017-08-12 07:00:00 19 0 Calma 4 Sur 0 1007.1 0.1 62
2017-08-12 06:00:00 20.7 0 Calma 5 Oeste 0 1007 0 58
2017-08-12 05:00:00 20.8 2 Oeste 5 Oeste 0 1007 0.1 61
2017-08-12 04:00:00 22.7 0 Calma 11 Noroeste 0 1007 0.4 50
2017-08-12 03:00:00 23.5 2 Norte 5 Norte 0 1007 0.9 49
2017-08-12 02:00:00 24.5 0 Calma 17 Sur 0 1006.9 1.7 45
2017-08-12 01:00:00 25.4 0 Calma 4 Sudoeste 0 1006.6 2.2 43
2017-08-12 00:00:00 26.6 3 Oeste 11 Oeste 0 1006.1 2.5 39
2017-08-11 23:00:00 29.4 7 Sudoeste 22 Sudoeste 0 1005.2 1.8 31
2017-08-11 22:00:00 29.2 3 Noroeste 13 Noroeste 0 1004.4 0.8 25
2017-08-11 21:00:00 35.1 4 Oeste 8 Oeste 0 1003.6 -0.6 18
2017-08-11 20:00:00 37.3 3 Sudoeste 13 Oeste 0 1003.4 -1.5 13
2017-08-11 19:00:00 38 2 Sudeste 17 Sur 0 1003.6 -2 13
2017-08-11 18:00:00 38 5 Sur 18 Sur 0 1004.2 -2.2 13
2017-08-11 17:00:00 37.5 5 Este 21 Este 0 1004.9 -2.3 14
2017-08-11 16:00:00 37.1 4 Este 18 Este 0 1005.6 -2.3 15
2017-08-11 15:00:00 35.9 3 Sudeste 18 Sudeste 0 1006.4 -2.1 18
2017-08-11 14:00:00 33.9 3 Nordeste 15 Nordeste 0 1007.2 -1.7 25
2017-08-11 13:00:00 32.9 5 Este 18 Este 0 1007.9 -0.9 29
2017-08-11 12:00:00 30.9 5 Este 21 Este 0 1008.5 -0.4 32
2017-08-11 11:00:00 28.5 2 Este 8 Este 0 1008.9 0.5 47
2017-08-11 10:00:00 25.9 3 Este 11 Este 0 1008.8 0.7 53
2017-08-11 09:00:00 23.6 4 Este 8 Este 0 1008.9 0.8 61
2017-08-11 08:00:00 19.2 0 Calma -- -- 0 1008.4 0.2 75
2017-08-11 07:00:00 19.3 0 Calma -- -- 0 1008.1 -0.2 78
2017-08-11 06:00:00 20.2 0 Calma 4 Sur 0 1008.1 -0.4 72
2017-08-11 05:00:00 21.6 0 Calma 8 Sur 0 1008.2 -0.4 70
2017-08-11 04:00:00 21.6 0 Calma 5 Noroeste 0 1008.3 0.1 70
2017-08-11 03:00:00 23 0 Calma 13 Sudoeste 0 1008.5 1 66
2017-08-11 02:00:00 24.4 0 Calma 15 Sur 0 1008.6 1.7 60
2017-08-11 01:00:00 25.6 3 Sudeste 9 Sur 0 1008.2 2.3 53
2017-08-11 00:00:00 27.6 4 Sur 13 Sur 0 1007.5 2.3 47
2017-08-10 23:00:00 29.3 4 Norte 21 Oeste 0 1006.9 1.8 32
2017-08-10 22:00:00 30.1 5 Nordeste 17 Norte 0 1005.9 0.9 21
2017-08-10 21:00:00 34 0 Calma 13 Sudoeste 0 1005.2 -0.2 18
2017-08-10 20:00:00 36.1 0 Calma 17 Este 0 1005.1 -0.7 15
2017-08-10 19:00:00 36.5 0 Calma 21 Sur 0 1005 -1.4 15
2017-08-10 18:00:00 36.8 4 Este 18 Este 0 1005.4 -1.9 15
2017-08-10 17:00:00 36.9 5 Este 22 Sur 0 1005.8 -2.1 15
2017-08-10 16:00:00 35.8 5 Este 26 Sudeste 0 1006.4 -1.9 15
2017-08-10 15:00:00 34.8 9 Este 30 Este 0 1007.3 -1.1 20
2017-08-10 14:00:00 33.2 14 Este 28 Este 0 1007.9 -0.2 25
2017-08-10 13:00:00 31.5 16 Este 28 Este 0 1008.3 0.4 28
2017-08-10 12:00:00 29.3 17 Este 33 Este 0 1008.4 0.8 31
2017-08-10 11:00:00 27.5 22 Este 32 Este 0 1008.1 1.1 32
2017-08-10 10:00:00 25.4 13 Este 18 Este 0 1007.9 1.7 38
2017-08-10 09:00:00 22 6 Este 13 Sudeste 0 1007.6 1.7 49
2017-08-10 08:00:00 18 6 Este 11 Este 0 1007 1.3 65
2017-08-10 07:00:00 16.9 0 Calma -- -- 0 1006.2 0.8 75
2017-08-10 06:00:00 17.5 0 Calma -- -- 0 1005.9 0.9 73
2017-08-10 05:00:00 18.3 0 Calma 2 Este 0 1005.7 0.6 71
2017-08-10 04:00:00 19.2 0 Calma 13 Oeste 0 1005.4 0.7 65
2017-08-10 03:00:00 20.2 6 Oeste 15 Oeste 0 1005 0.8 57
2017-08-10 02:00:00 21.7 5 Sudoeste 17 Oeste 0 1005.1 1.4 53
2017-08-10 01:00:00 23.1 9 Oeste 26 Oeste 0 1004.7 1.8 49
2017-08-10 00:00:00 24.9 16 Oeste 30 Oeste 0 1004.2 2.3 42
2017-08-09 23:00:00 26.8 15 Oeste 26 Sudoeste 0 1003.7 2.5 36
2017-08-09 22:00:00 28.8 19 Sudoeste 35 Sudoeste 0 1002.9 1.8 31
2017-08-09 21:00:00 31.8 15 Sudoeste 28 Sudoeste 0 1001.9 0.4 18
2017-08-09 20:00:00 33.8 17 Sudoeste 28 Sudoeste 0 1001.2 -0.8 13
2017-08-09 19:00:00 34.9 17 Sudoeste 32 Sudoeste 0 1001.1 -1.5 13
2017-08-09 18:00:00 35.3 18 Sudoeste 35 Oeste 0 1001.5 -1.9 14
2017-08-09 17:00:00 35.3 16 Sudoeste 32 Sudoeste 0 1002 -1.9 13
2017-08-09 16:00:00 34.9 15 Sudoeste 32 Oeste 0 1002.6 -1.6 13
2017-08-09 15:00:00 34 18 Sudoeste 32 Sudoeste 0 1003.4 -1.1 15
2017-08-09 14:00:00 32.9 17 Sudoeste 30 Sudoeste 0 1003.9 -0.7 18
2017-08-09 13:00:00 30.9 12 Sudoeste 28 Sudoeste 0 1004.2 -0.3 23
2017-08-09 12:00:00 28.8 3 Oeste 17 Sudoeste 0 1004.5 0.2 23
2017-08-09 11:00:00 26.3 4 Sudoeste 11 Sudoeste 0 1004.6 0.5 27
2017-08-09 10:00:00 24.8 0 Calma -- -- 0 1004.5 0.7 30
2017-08-09 09:00:00 20.6 0 Calma -- -- 0 1004.3 0.9 34
2017-08-09 08:00:00 16.5 0 Calma -- -- 0 1004.1 1 52
2017-08-09 07:00:00 16.9 0 Calma 4 Nordeste 0 1003.8 0.7 43
2017-08-09 06:00:00 17.2 0 Calma 2 Norte 0 1003.4 0.2 46
2017-08-09 05:00:00 17.1 0 Calma 5 Sur 0 1003.1 0 43
2017-08-09 04:00:00 18.1 4 Sur 5 Sur 0 1003.1 0.3 38
2017-08-09 03:00:00 19.3 0 Calma 13 Oeste 0 1003.2 0.4 30
2017-08-09 02:00:00 21.3 3 Sudoeste 13 Sudoeste 0 1003.1 0.5 26
2017-08-09 01:00:00 24.8 0 Calma 39 Norte 0 1002.8 0.7 17
2017-08-09 00:00:00 27.7 6 Este 18 Este 0 1002.8 1.3 13
2017-08-08 23:00:00 28.3 0 Calma 11 Noroeste 0 1002.6 1.5 13
2017-08-08 22:00:00 28.7 0 Calma 15 Noroeste 0 1002.1 0.9 14
2017-08-08 21:00:00 33.1 10 Noroeste 26 Oeste 0 1001.5 0.1 11
2017-08-08 20:00:00 36.1 15 Oeste 28 Oeste 0 1001.1 -0.6 9
2017-08-08 19:00:00 37.2 18 Oeste 30 Oeste 0 1001.2 -0.9 8
2017-08-08 18:00:00 37.6 22 Oeste 37 Sudoeste 0 1001.4 -1.2 9
2017-08-08 17:00:00 37.6 24 Oeste 45 Oeste 0 1001.7 -1.6 9
2017-08-08 16:00:00 37.3 23 Sudoeste 33 Sudoeste 0 1002.1 -1.8 10
2017-08-08 15:00:00 36.1 18 Sudoeste 26 Sudoeste 0 1002.6 -1.5 14
2017-08-08 14:00:00 34.8 8 Sudoeste 22 Sur 0 1003.3 -0.8 14
2017-08-08 13:00:00 33.4 10 Sur 21 Sudeste 0 1003.9 -0.2 17
2017-08-08 12:00:00 30.8 0 Calma 15 Sur 0 1004.1 0.1 21
2017-08-08 11:00:00 28.7 2 Oeste 9 Oeste 0 1004.1 0.8 24
2017-08-08 10:00:00 25.3 2 Sudoeste 8 Sudoeste 0 1004.1 1.4 28
2017-08-08 09:00:00 21.3 0 Calma 5 Sudoeste 0 1004 1.8 38
2017-08-08 08:00:00 18.9 3 Sudoeste 8 Sudoeste 0 1003.3 1 42
2017-08-08 07:00:00 19.8 2 Sur 4 Sur 0 1002.7 0.6 43
2017-08-08 06:00:00 21 0 Calma 8 Oeste 0 1002.2 0.1 43
2017-08-08 05:00:00 22.4 3 Oeste 5 Oeste 0 1002.3 0.4 38
2017-08-08 04:00:00 23 0 Calma -- -- 0 1002.1 0.2 44
2017-08-08 03:00:00 24.1 2 Oeste 15 Oeste 0 1002.1 0.4 34
2017-08-08 02:00:00 26.3 4 Sudoeste 11 Sudoeste 0 1001.9 0.6 28
2017-08-08 01:00:00 27.4 0 Calma 13 Oeste 0 1001.9 1.3 27
2017-08-08 00:00:00 28.1 7 Oeste 17 Oeste 0 1001.7 1.9 28
2017-08-07 23:00:00 30.6 11 Oeste 17 Oeste 0 1001.3 1.8 25
2017-08-07 22:00:00 32.9 8 Sudoeste 21 Oeste 0 1000.6 0.9 22
2017-08-07 21:00:00 36.6 16 Oeste 32 Oeste 0 999.8 -0.6 17
2017-08-07 20:00:00 38.4 17 Oeste 35 Sudoeste 0 999.5 -1.3 14
2017-08-07 19:00:00 40.4 22 Sudoeste 33 Oeste 0 999.7 -1.6 12
2017-08-07 18:00:00 40.7 23 Sudoeste 32 Sudoeste 0 1000.4 -1.5 12
2017-08-07 17:00:00 40.5 16 Oeste 30 Oeste 0 1000.8 -1.6 12
2017-08-07 16:00:00 40.5 19 Oeste 32 Sudoeste 0 1001.3 -- 12
2017-08-07 15:00:00 39 14 Oeste 24 Oeste 0 1001.9 -1.4 12
2017-08-07 14:00:00 37.1 12 Oeste -- -- -- 1002.4 -1.1 15
2017-08-07 13:00:00 -- -- -- -- -- -- -- -- --
2017-08-07 12:00:00 34.1 3 Norte 17 Este 0 1003.3 -1 17
2017-08-07 11:00:00 31.4 4 Norte 13 Norte 0 1003.5 0.1 21
2017-08-07 10:00:00 29.1 0 Calma 8 Sudoeste 0 1003.9 0.1 25
2017-08-07 09:00:00 25.4 0 Calma 4 Sur 0 1004.3 1.2 34
2017-08-07 08:00:00 21.9 0 Calma 5 Oeste 0 1003.4 -0.2 47
2017-08-07 07:00:00 22.9 3 Oeste 26 Oeste 0 1003.8 0.7 40
2017-08-07 06:00:00 23.6 0 Calma 11 Sudoeste 0 1003.1 -1.1 35
2017-08-07 05:00:00 25.5 5 Oeste 28 Este 0 1003.6 0.1 29
2017-08-07 04:00:00 25.8 7 Sudeste 15 Sudeste 0 1003.1 -0.4 32
2017-08-07 03:00:00 25.6 10 Oeste 17 Oeste 0 1004.2 1.3 33
2017-08-07 02:00:00 26 8 Oeste 18 Sudoeste 0 1003.5 1 31
2017-08-07 01:00:00 29.3 8 Sudoeste 28 Sudoeste 0 1003.5 2 22
2017-08-07 00:00:00 31.1 17 Sudoeste 30 Sudoeste 0 1002.9 2.4 21
2017-08-06 23:00:00 32.5 13 Sudoeste 26 Oeste 0 1002.5 2.4 24
2017-08-06 22:00:00 34 15 Oeste 22 Oeste 0 1001.5 1.3 19
2017-08-06 21:00:00 37.9 13 Oeste 21 Oeste 0 1000.5 0 14
2017-08-06 20:00:00 41 14 Oeste 22 Oeste 0 1000.1 -0.9 9
2017-08-06 19:00:00 42.1 15 Sudoeste 26 Sudoeste 0 1000.2 -1.3 9
2017-08-06 18:00:00 42.5 19 Oeste 28 Oeste 0 1000.5 -1.5 9
2017-08-06 17:00:00 42.1 17 Oeste 30 Oeste 0 1001 -1.6 8
2017-08-06 16:00:00 42 13 Oeste 30 Oeste 0 1001.5 -1.9 9
2017-08-06 15:00:00 40.4 8 Oeste 26 Oeste 0 1002 -1.8 12
2017-08-06 14:00:00 39.1 5 Oeste 17 Noroeste 0 1002.6 -1.4 13
2017-08-06 13:00:00 37.4 0 Calma 15 Sur 0 1003.4 -0.5 16
2017-08-06 12:00:00 35 0 Calma 5 Oeste 0 1003.8 -0.1 20
2017-08-06 11:00:00 31.9 0 Calma 5 Sur 0 1004 0.6 26
2017-08-06 10:00:00 28.9 0 Calma 4 Sudoeste 0 1003.9 0.9 31
2017-08-06 09:00:00 25.3 0 Calma 4 Sudoeste 0 1003.9 1.3 46
2017-08-06 08:00:00 21.6 0 Calma -- -- 0 1003.4 1 66
2017-08-06 07:00:00 21.2 0 Calma -- -- 0 1003 0.8 70
2017-08-06 06:00:00 22 0 Calma 4 Sudoeste 0 1002.6 0.4 68
2017-08-06 05:00:00 22.8 2 Sudoeste 4 Sudoeste 0 1002.4 -0.2 59
2017-08-06 04:00:00 24.8 0 Calma 13 Sudoeste 0 1002.2 -0.2 56
2017-08-06 03:00:00 26.4 10 Oeste 15 Oeste 0 1002.2 0.2 48
2017-08-06 02:00:00 28.2 2 Oeste 22 Sudoeste 0 1002.6 1.4 42
2017-08-06 01:00:00 29.7 9 Oeste 15 Oeste 0 1002.4 1.9 35
2017-08-06 00:00:00 31.4 3 Oeste 17 Sudoeste 0 1002 2.2 30
2017-08-05 23:00:00 33.4 11 Sudoeste 22 Sudoeste 0 1001.2 2 25
2017-08-05 22:00:00 35.6 16 Oeste 24 Oeste 0 1000.5 1.3 22
2017-08-05 21:00:00 38.7 18 Oeste 30 Oeste 0 999.8 0.2 18
2017-08-05 20:00:00 41.4 21 Oeste 32 Oeste 0 999.2 -0.8 15
2017-08-05 19:00:00 42.8 19 Sudoeste 32 Sudoeste 0 999.2 -1.7 12
2017-08-05 18:00:00 43.7 19 Oeste 32 Sudoeste 0 999.6 -2 9
2017-08-05 17:00:00 43.5 18 Sudoeste 35 Sudoeste 0 1000 -2.3 13
2017-08-05 16:00:00 42.8 20 Oeste 33 Oeste 0 1000.9 -2.2 16
2017-08-05 15:00:00 42.1 17 Sudoeste 33 Oeste 0 1001.6 -1.9 16
2017-08-05 14:00:00 40.8 16 Oeste 24 Oeste 0 1002.3 -1.2 17
2017-08-05 13:00:00 38.3 9 Oeste 21 Oeste 0 1003.1 -0.3 22
2017-08-05 12:00:00 36.5 8 Sudoeste 17 Sudoeste 0 1003.5 0.4 25
2017-08-05 11:00:00 33.7 0 Calma 8 Oeste 0 1003.5 0.8 29
2017-08-05 10:00:00 30.6 0 Calma 5 Oeste 0 1003.4 1 37
2017-08-05 09:00:00 28.7 0 Calma -- -- 0 1003.1 0.8 40
2017-08-05 08:00:00 24.1 0 Calma -- -- 0 1002.7 0.4 60
2017-08-05 07:00:00 23.9 0 Calma -- -- 0 1002.4 0 60
2017-08-05 06:00:00 24.9 0 Calma 5 Sur 0 1002.3 -0.1 54
2017-08-05 05:00:00 26.2 0 Calma -- -- 0 1002.3 0.3 50
2017-08-05 04:00:00 27.6 0 Calma 15 Oeste 0 1002.4 0.6 46
2017-08-05 03:00:00 29.3 10 Oeste 17 Oeste 0 1002.4 0.7 37
2017-08-05 02:00:00 29.8 10 Oeste 21 Sudoeste 0 1002 0.5 38
2017-08-05 01:00:00 30.2 11 Sudoeste 17 Oeste 0 1001.8 1.2 35
2017-08-05 00:00:00 31.8 5 Sudoeste 15 Oeste 0 1001.7 1.8 34
2017-08-04 23:00:00 34 10 Oeste 17 Oeste 0 1001.5 1.8 29
2017-08-04 22:00:00 36 5 Oeste 13 Oeste 0 1000.6 0.8 26
2017-08-04 21:00:00 41 9 Oeste 17 Sudoeste 0 999.9 -0.3 17
2017-08-04 20:00:00 43 8 Sudoeste 18 Oeste 0 999.7 -1.1 14
2017-08-04 19:00:00 43.8 9 Oeste 18 Oeste 0 999.8 -1.8 13
2017-08-04 18:00:00 44.5 5 Sur 17 Oeste 0 1000.2 -2.2 11
2017-08-04 17:00:00 43.7 3 Noroeste 17 Sur 0 1000.8 -2.4 10
2017-08-04 16:00:00 43.9 5 Sur 17 Este 0 1001.6 -2.4 10
2017-08-04 15:00:00 42.3 3 Oeste 18 Sudoeste 0 1002.4 -2.3 10
2017-08-04 14:00:00 41.1 3 Este 18 Este 0 1003.2 -1.8 10
2017-08-04 13:00:00 38.7 11 Este 18 Nordeste 0 1004 -1 14
2017-08-04 12:00:00 35.6 6 Nordeste 15 Este 0 1004.7 -0.1 18
2017-08-04 11:00:00 32.4 6 Este 15 Este 0 1005 0.5 20
2017-08-04 10:00:00 29.4 2 Nordeste 8 Este 0 1005 0.7 24
2017-08-04 09:00:00 25.2 0 Calma 2 Este 0 1004.8 0.7 31
2017-08-04 08:00:00 20.1 0 Calma -- -- 0 1004.5 0.6 49
2017-08-04 07:00:00 20.1 0 Calma -- -- 0 1004.3 0.5 46
2017-08-04 06:00:00 20.8 0 Calma -- -- 0 1004.1 0.5 45
2017-08-04 05:00:00 21.4 0 Calma 8 Sudoeste 0 1003.9 0.2 43
2017-08-04 04:00:00 22.7 4 Sudoeste 8 Sudoeste 0 1003.8 0.2 38
2017-08-04 03:00:00 25.1 5 Sudoeste 15 Sudoeste 0 1003.6 -0.1 30
2017-08-04 02:00:00 26.6 5 Sudoeste 13 Sur 0 1003.7 0.2 27
2017-08-04 01:00:00 31.4 3 Sur 24 Noroeste 0 1003.6 0.7 19
2017-08-04 00:00:00 34.6 7 Norte 32 Noroeste 0 1003.7 1.3 12
2017-08-03 23:00:00 30.6 4 Sudeste 18 Este 0 1003.5 1.5 25
2017-08-03 22:00:00 33.6 4 Oeste 17 Noroeste 0 1002.9 0.9 19
2017-08-03 21:00:00 38.4 9 Oeste 21 Oeste 0 1002.4 0 14
2017-08-03 20:00:00 41 12 Oeste 22 Oeste 0 1002 -0.9 11
2017-08-03 19:00:00 41.9 16 Sudoeste 30 Oeste 0 1002 -1.6 10
2017-08-03 18:00:00 42.2 14 Sudoeste 24 Sudoeste 0 1002.4 -1.9 11
2017-08-03 17:00:00 42.1 11 Oeste 21 Oeste 0 1002.9 -2.3 11
2017-08-03 16:00:00 42 2 Oeste 21 Sudeste 0 1003.6 -2.4 11
2017-08-03 15:00:00 40.7 5 Oeste 18 Oeste 0 1004.3 -2.4 11
2017-08-03 14:00:00 39.2 0 Calma 17 Oeste 0 1005.2 -1.9 13
2017-08-03 13:00:00 36.3 6 Este 15 Este 0 1006 -1.2 15
2017-08-03 12:00:00 33.2 4 Este 15 Este 0 1006.7 -0.2 20
2017-08-03 11:00:00 30.2 5 Este 13 Este 0 1007.1 0.5 25
2017-08-03 10:00:00 27.3 3 Este 8 Nordeste 0 1007.2 0.7 31
2017-08-03 09:00:00 23.3 0 Calma -- -- 0 1006.9 0.7 44
2017-08-03 08:00:00 19.1 0 Calma -- -- 0 1006.6 0.4 61
2017-08-03 07:00:00 18.2 0 Calma 4 Sudoeste 0 1006.5 0.3 62
2017-08-03 06:00:00 19.2 0 Calma 5 Sur 0 1006.2 0.1 61
2017-08-03 05:00:00 19.8 0 Calma 5 Sudoeste 0 1006.2 0.2 59
2017-08-03 04:00:00 21.5 3 Sudoeste 13 Oeste 0 1006.2 0.6 47
2017-08-03 03:00:00 22.4 9 Oeste 13 Oeste 0 1006.1 1 42
2017-08-03 02:00:00 23.8 0 Calma 8 Oeste 0 1006 1.2 43
2017-08-03 01:00:00 25.3 3 Oeste 13 Oeste 0 1005.6 1.6 37
2017-08-03 00:00:00 26.8 5 Sudoeste 13 Sudoeste 0 1005.1 2 32
2017-08-02 23:00:00 28.4 3 Sudoeste 8 Oeste 0 1004.8 2.2 31
2017-08-02 22:00:00 31.4 6 Oeste 15 Oeste 0 1004 1.2 24
2017-08-02 21:00:00 36.3 9 Oeste 21 Oeste 0 1003.1 0.1 15
2017-08-02 20:00:00 38.7 10 Oeste 18 Oeste 0 1002.6 -0.8 12
2017-08-02 19:00:00 39.3 10 Oeste 21 Oeste 0 1002.8 -1 11
2017-08-02 18:00:00 39.8 14 Sudoeste 22 Sudoeste 0 1003 -1.5 12
2017-08-02 17:00:00 39.3 7 Sudoeste 21 Oeste 0 1003.4 -1.6 11
2017-08-02 16:00:00 39.1 9 Sudoeste 22 Sudoeste 0 1003.8 -1.7 12
2017-08-02 15:00:00 37.7 4 Sur 17 Sur 0 1004.5 -1.6 13
2017-08-02 14:00:00 -- -- -- -- -- -- -- -- --
2017-08-02 13:00:00 -- -- -- -- -- -- -- -- --
2017-08-02 12:00:00 -- -- -- -- -- -- -- -- --
2017-08-02 11:00:00 -- -- -- -- -- -- -- -- --
2017-08-02 10:00:00 -- -- -- -- -- -- -- -- --
2017-08-02 09:00:00 -- -- -- -- -- -- -- -- --
2017-08-02 08:00:00 -- -- -- -- -- -- -- -- --
2017-08-02 07:00:00 -- -- -- -- -- -- -- -- --
2017-08-02 06:00:00 -- -- -- -- -- -- -- -- --
2017-08-02 05:00:00 -- -- -- -- -- -- -- -- --
2017-08-02 04:00:00 -- -- -- -- -- -- -- -- --
2017-08-02 03:00:00 -- -- -- -- -- -- -- -- --
2017-08-02 02:00:00 -- -- -- -- -- -- -- -- --
2017-08-02 01:00:00 -- -- -- -- -- -- -- -- --
2017-08-02 00:00:00 -- -- -- -- -- -- -- -- --
2017-08-01 23:00:00 -- -- -- -- -- -- -- -- --
2017-08-01 22:00:00 -- -- -- -- -- -- -- -- --
2017-08-01 21:00:00 -- -- -- -- -- -- -- -- --
2017-08-01 20:00:00 -- -- -- -- -- -- -- -- --
2017-08-01 19:00:00 -- -- -- -- -- -- -- -- --
2017-08-01 18:00:00 -- -- -- -- -- -- -- -- --
2017-08-01 17:00:00 -- -- -- -- -- -- -- -- --
2017-08-01 16:00:00 -- -- -- -- -- -- -- -- --
2017-08-01 15:00:00 -- -- -- -- -- -- -- -- --
2017-08-01 14:00:00 -- -- -- -- -- -- -- -- --
2017-08-01 13:00:00 -- -- -- -- -- -- -- -- --
2017-08-01 12:00:00 -- -- -- -- -- -- -- -- --
2017-08-01 11:00:00 -- -- -- -- -- -- -- -- --
2017-08-01 10:00:00 -- -- -- -- -- -- -- -- --
2017-08-01 09:00:00 -- -- -- -- -- -- -- -- --
2017-08-01 08:00:00 -- -- -- -- -- -- -- -- --
2017-08-01 07:00:00 -- -- -- -- -- -- -- -- --
2017-08-01 06:00:00 -- -- -- -- -- -- -- -- --
2017-08-01 05:00:00 -- -- -- -- -- -- -- -- --
2017-08-01 04:00:00 -- -- -- -- -- -- -- -- --
2017-08-01 03:00:00 -- -- -- -- -- -- -- -- --
2017-08-01 02:00:00 -- -- -- -- -- -- -- -- --
2017-08-01 01:00:00 -- -- -- -- -- -- -- -- --
2017-08-01 00:00:00 26.6 17 Sudoeste 32 Sudoeste 0 1000.3 3.1 38
2017-07-31 23:00:00 28.1 10 Oeste 26 Oeste 0 999.9 2.9 27
2017-07-31 22:00:00 30.9 19 Oeste 30 Oeste 0 998.5 1.5 23
2017-07-31 21:00:00 33.5 15 Sudoeste 28 Oeste 0 997.2 0 22
2017-07-31 20:00:00 36 18 Oeste 35 Oeste 0 997 -0.7 18
2017-07-31 19:00:00 37.1 21 Oeste 33 Oeste 0 997 -1.5 16
2017-07-31 18:00:00 37.7 19 Sudoeste 33 Oeste 0 997.2 -1.7 18
2017-07-31 17:00:00 38 17 Oeste 33 Sudoeste 0 997.7 -1.6 18
2017-07-31 16:00:00 37.7 19 Oeste 33 Sudoeste 0 998.5 -1.3 16
2017-07-31 15:00:00 36.9 19 Oeste 30 Oeste 0 998.9 -1.3 16
2017-07-31 14:00:00 35.6 13 Sudoeste 24 Sudoeste 0 999.3 -0.9 18
2017-07-31 13:00:00 33.4 12 Oeste 21 Sudoeste 0 999.8 -0.4 21
2017-07-31 12:00:00 31 9 Oeste 18 Sudoeste 0 1000.2 0.1 26
2017-07-31 11:00:00 27.9 5 Oeste 15 Oeste 0 1000.2 0.6 36
2017-07-31 10:00:00 25.8 3 Oeste 8 Oeste 0 1000.2 0.7 43
2017-07-31 09:00:00 24.2 0 Calma -- -- 0 1000.1 0.7 53
2017-07-31 08:00:00 20.1 0 Calma 5 Noroeste 0 999.6 0 68
2017-07-31 07:00:00 19.8 0 Calma 2 Oeste 0 999.5 -0.1 69
2017-07-31 06:00:00 20.7 3 Oeste 5 Oeste 0 999.4 -0.4 65
2017-07-31 05:00:00 21.5 2 Sudoeste 8 Sudoeste 0 999.6 -0.5 57
2017-07-31 04:00:00 22.6 4 Oeste 8 Sudoeste 0 999.6 -0.1 54
2017-07-31 03:00:00 24.6 5 Sudoeste 15 Sudoeste 0 999.8 0.5 43
2017-07-31 02:00:00 26.3 6 Sudoeste 18 Oeste 0 1000.1 1.1 41
2017-07-31 01:00:00 27.9 11 Oeste 22 Oeste 0 999.7 1.7 38
2017-07-31 00:00:00 30.4 15 Sudoeste 26 Oeste 0 999.3 1.9 35
2017-07-30 23:00:00 31.7 11 Oeste 24 Sudoeste 0 999 1.7 38
2017-07-30 22:00:00 33.6 18 Oeste 28 Sudoeste 0 998 0.4 24
2017-07-30 21:00:00 37.1 15 Oeste 24 Oeste 0 997.4 -0.8 17
2017-07-30 20:00:00 39.6 17 Oeste 33 Oeste 0 997.3 -1.4 15
2017-07-30 19:00:00 40.9 18 Oeste 32 Oeste 0 997.6 -1.9 15
2017-07-30 18:00:00 41.4 18 Oeste 33 Oeste 0 998.2 -1.8 13
2017-07-30 17:00:00 41.6 17 Oeste 35 Oeste 0 998.7 -1.9 14
2017-07-30 16:00:00 41.2 17 Oeste 30 Oeste 0 999.5 -1.9 16
2017-07-30 15:00:00 40.6 17 Oeste 32 Oeste 0 1000 -2 15
2017-07-30 14:00:00 39.1 9 Oeste 18 Oeste 0 1000.6 -1.6 17
2017-07-30 13:00:00 37.6 4 Sur 15 Nordeste 0 1001.4 -1 19
2017-07-30 12:00:00 34.9 2 Este 11 Este 0 1002 -0.4 23
2017-07-30 11:00:00 31.6 4 Este 13 Nordeste 0 1002.2 -0.5 31
2017-07-30 10:00:00 28.9 5 Este 17 Este 0 1002.4 -0.6 35
2017-07-30 09:00:00 25.9 3 Este 8 Este 0 1002.4 -0.6 47
2017-07-30 08:00:00 21.1 0 Calma 2 Sudeste 0 1002.7 -0.3 65
2017-07-30 07:00:00 21.2 0 Calma 8 Oeste 0 1003 0 60
2017-07-30 06:00:00 22.2 0 Calma -- -- 0 1003 0 60
2017-07-30 05:00:00 23 0 Calma 8 Sur 0 1003 0 56
2017-07-30 04:00:00 23.6 3 Oeste 8 Oeste 0 1003 0 54
2017-07-30 03:00:00 25.4 4 Oeste 15 Oeste 0 1003 0 45
2017-07-30 02:00:00 26.6 10 Oeste 15 Oeste 0 1003 0 37
2017-07-30 01:00:00 27.8 6 Oeste 18 Sudoeste 0 1003 0.8 32
2017-07-30 00:00:00 30.1 12 Sudoeste 17 Oeste 0 1003 1.3 24
2017-07-29 23:00:00 32 13 Sudoeste 18 Sudoeste 0 1003 1.5 27
2017-07-29 22:00:00 33.9 13 Sudoeste 18 Oeste 0 1002.2 0.7 22
2017-07-29 21:00:00 37.5 13 Oeste 24 Oeste 0 1001.7 -0.4 14
2017-07-29 20:00:00 40.1 15 Oeste 30 Oeste 0 1001.5 -1.1 11
2017-07-29 19:00:00 41.4 19 Oeste 30 Oeste 0 1001.5 -1.7 10
2017-07-29 18:00:00 42.1 14 Oeste 26 Oeste 0 1002.1 -1.6 10
2017-07-29 17:00:00 42.1 17 Oeste 26 Oeste 0 1002.6 -1.8 10
2017-07-29 16:00:00 41.2 17 Oeste 32 Oeste 0 1003.2 -1.7 10
2017-07-29 15:00:00 40.5 17 Oeste -- -- -- 1003.7 -1.6 11
2017-07-29 14:00:00 38.9 8 Oeste 18 Oeste 0 1004.4 -1.2 12
2017-07-29 13:00:00 36.9 5 Sur 13 Sudoeste 0 1004.9 -1 17
2017-07-29 12:00:00 34.1 0 Calma 9 Este 0 1005.3 -0.4 19
2017-07-29 11:00:00 30.7 3 Este 11 Este 0 1005.6 0.4 25
2017-07-29 10:00:00 27.5 0 Calma 5 Nordeste 0 1005.9 1 33
2017-07-29 09:00:00 23 0 Calma 2 Oeste 0 1005.7 1 41
2017-07-29 08:00:00 19.2 0 Calma 4 Oeste 0 1005.2 0.7 59
2017-07-29 07:00:00 18.6 0 Calma 4 Sudoeste 0 1004.9 0.5 68
2017-07-29 06:00:00 19.8 0 Calma 4 Sur 0 1004.7 0.3 59
2017-07-29 05:00:00 20.7 0 Calma 2 Nordeste 0 1004.5 0.4 58
2017-07-29 04:00:00 21.9 0 Calma 13 Oeste 0 1004.4 0.4 52
2017-07-29 03:00:00 23.5 5 Oeste 17 Oeste 0 1004.4 0.7 46
2017-07-29 02:00:00 26.4 9 Oeste 17 Oeste 0 1004.1 0.7 35
2017-07-29 01:00:00 28.1 11 Sudoeste 18 Oeste 0 1004 1.7 27
2017-07-29 00:00:00 27.6 12 Oeste 15 Oeste 0 1003.7 2.1 28
2017-07-28 23:00:00 30.9 6 Oeste 18 Oeste 0 1003.4 2 23
2017-07-28 22:00:00 32.4 10 Sudoeste 18 Oeste 0 1002.3 1.1 19
2017-07-28 21:00:00 37.4 12 Oeste 22 Oeste 0 1001.6 0.1 12
2017-07-28 20:00:00 40.2 15 Oeste 26 Oeste 0 1001.4 -0.6 11
2017-07-28 19:00:00 41.9 13 Oeste 24 Oeste 0 1001.2 -1.4 10
2017-07-28 18:00:00 42.4 16 Sudoeste 26 Sudoeste 0 1001.5 -1.6 10
2017-07-28 17:00:00 42.4 12 Sudoeste 26 Sudoeste 0 1002 -1.8 10
2017-07-28 16:00:00 41.6 15 Sudoeste 24 Sudoeste 0 1002.6 -1.8 11
2017-07-28 15:00:00 41.1 12 Sudoeste 22 Sudoeste 0 1003.1 -1.6 11
2017-07-28 14:00:00 39.3 8 Oeste 17 Oeste 0 1003.8 -1.2 12
2017-07-28 13:00:00 36.9 3 Sudoeste 11 Sudoeste 0 1004.4 -0.7 18
2017-07-28 12:00:00 34.3 2 Sudeste 9 Este 0 1004.7 -0.1 23
2017-07-28 11:00:00 31.1 2 Este 8 Sudeste 0 1005 0.6 30
2017-07-28 10:00:00 27.7 0 Calma 4 Este 0 1005.1 1 39
2017-07-28 09:00:00 23.1 0 Calma -- -- 0 1004.8 0.9 51
2017-07-28 08:00:00 19.9 0 Calma 2 Sudoeste 0 1004.4 0.5 65
2017-07-28 07:00:00 19.7 0 Calma -- -- 0 1004.1 0.3 70
2017-07-28 06:00:00 21 0 Calma 5 Sur 0 1003.9 0.4 62
2017-07-28 05:00:00 22.4 3 Oeste 5 Oeste 0 1003.9 0.8 54
2017-07-28 04:00:00 23.3 0 Calma 11 Oeste 0 1003.8 1.3 57
2017-07-28 03:00:00 25.1 10 Oeste 17 Oeste 0 1003.5 1.3 46
2017-07-28 02:00:00 26.4 7 Oeste 13 Oeste 0 1003.1 1 43
2017-07-28 01:00:00 27.7 8 Oeste 18 Sudoeste 0 1002.5 1.3 38
2017-07-28 00:00:00 29.8 12 Sudoeste 18 Sudoeste 0 1002.2 1.7 32
2017-07-27 23:00:00 30.4 9 Sudoeste 13 Sudoeste 0 1002.1 1.9 26
2017-07-27 22:00:00 31.7 7 Oeste 17 Oeste 0 1001.2 0.8 22
2017-07-27 21:00:00 36.4 11 Oeste 21 Oeste 0 1000.5 -0.3 15
2017-07-27 20:00:00 39.2 14 Oeste 24 Oeste 0 1000.2 -1.2 13
2017-07-27 19:00:00 40.3 15 Oeste 28 Oeste 0 1000.4 -1.5 14
2017-07-27 18:00:00 40.7 15 Oeste 26 Oeste 0 1000.8 -1.8 13
2017-07-27 17:00:00 40.6 16 Oeste 26 Oeste 0 1001.4 -1.9 14
2017-07-27 16:00:00 39.8 12 Oeste 22 Oeste 0 1001.9 -2 18
2017-07-27 15:00:00 38.1 11 Oeste 24 Sudoeste 0 1002.6 -1.8 20
2017-07-27 14:00:00 36.3 6 Oeste 21 Oeste 0 1003.3 -1.3 26
2017-07-27 13:00:00 34.3 4 Oeste 15 Oeste 0 1003.9 -0.9 30
2017-07-27 12:00:00 32.3 3 Oeste 11 Oeste 0 1004.4 -0.1 32
2017-07-27 11:00:00 30.2 0 Calma 8 Nordeste 0 1004.6 0.4 37
2017-07-27 10:00:00 27.1 4 Nordeste 8 Nordeste 0 1004.8 1.1 48
2017-07-27 09:00:00 24 0 Calma -- -- 0 1004.5 1.1 60
2017-07-27 08:00:00 20.5 0 Calma 4 Noroeste 0 1004.2 1 73
2017-07-27 07:00:00 20.2 0 Calma 5 Sur 0 1003.7 0.7 73
2017-07-27 06:00:00 20.7 2 Sur 5 Sur 0 1003.4 0.4 69
2017-07-27 05:00:00 21.4 3 Sur 5 Sur 0 1003.2 0.3 67
2017-07-27 04:00:00 22.8 0 Calma 4 Oeste 0 1003 0.2 62
2017-07-27 03:00:00 23.6 0 Calma 2 Oeste 0 1003 0.5 60
2017-07-27 02:00:00 24.1 0 Calma 4 Noroeste 0 1002.9 0.8 57
2017-07-27 01:00:00 24.3 2 Oeste -- -- 0 1002.8 1.2 59
2017-07-27 00:00:00 25.8 0 Calma 4 Oeste 0 1002.5 1.3 53
2017-07-26 23:00:00 27.5 0 Calma 5 Oeste 0 1002.1 1.2 42
2017-07-26 22:00:00 28.9 5 Oeste 8 Oeste 0 1001.6 0.5 40
2017-07-26 21:00:00 33.3 5 Oeste 13 Oeste 0 1001.2 -0.3 28
2017-07-26 20:00:00 34.7 6 Oeste 21 Oeste 0 1000.9 -1.3 26
2017-07-26 19:00:00 35 13 Sudoeste 18 Oeste 0 1001.1 -1.7 23
2017-07-26 18:00:00 33.6 13 Sudoeste 21 Oeste 0 1001.5 -1.8 25
2017-07-26 17:00:00 32.7 15 Sudoeste 22 Sudoeste 0 1002.2 -1.9 27
2017-07-26 16:00:00 32.1 13 Oeste 22 Oeste 0 1002.8 -1.7 29
2017-07-26 15:00:00 31.9 15 Oeste 24 Oeste 0 1003.3 -1.2 29
2017-07-26 14:00:00 31.8 16 Sudoeste 30 Sudoeste 0 1004.1 -0.2 28
2017-07-26 13:00:00 30.4 13 Oeste 24 Oeste 0 1004.5 0.4 35
2017-07-26 12:00:00 28.6 17 Oeste 24 Oeste 0 1004.5 0.7 38
2017-07-26 11:00:00 27.5 4 Sudoeste 13 Sudoeste 0 1004.3 1 45
2017-07-26 10:00:00 25.4 0 Calma 4 Oeste 0 1004.1 1.3 52
2017-07-26 09:00:00 22.8 0 Calma -- -- 0 1003.8 1.3 57
2017-07-26 08:00:00 19.6 0 Calma 4 Sudoeste 0 1003.3 0.9 70
2017-07-26 07:00:00 20 0 Calma 4 Sudoeste 0 1002.8 0.3 68
2017-07-26 06:00:00 20.9 3 Sur 8 Oeste 0 1002.5 0.1 66
2017-07-26 05:00:00 22.1 5 Sudoeste 13 Oeste 0 1002.4 0.2 61
2017-07-26 04:00:00 22.4 8 Oeste 15 Oeste 0 1002.5 0.7 61
2017-07-26 03:00:00 23.9 9 Oeste 22 Oeste 0 1002.4 1 56
2017-07-26 02:00:00 25.2 5 Oeste 18 Oeste 0 1002.2 1.5 49
2017-07-26 01:00:00 26.4 14 Oeste 22 Oeste 0 1001.8 2 44
2017-07-26 00:00:00 28.4 14 Oeste 26 Oeste 0 1001.4 2.4 36
2017-07-25 23:00:00 30.4 15 Oeste 28 Sudoeste 0 1000.7 2.2 31
2017-07-25 22:00:00 32.5 21 Oeste 41 Oeste 0 999.8 1.4 28
2017-07-25 21:00:00 35.3 27 Oeste 42 Oeste 0 999 0.3 24
2017-07-25 20:00:00 38.1 22 Oeste 33 Oeste 0 998.5 -0.9 17
2017-07-25 19:00:00 39.9 19 Oeste 28 Sudoeste 0 998.4 -1.6 15
2017-07-25 18:00:00 40.3 11 Oeste 26 Oeste 0 998.7 -2.2 14
2017-07-25 17:00:00 40.3 15 Sudoeste 30 Oeste 0 999.4 -2.3 13
2017-07-25 16:00:00 39.7 8 Sur 24 Sudoeste 0 1000 -2.5 14
2017-07-25 15:00:00 38.9 14 Sudoeste 26 Sudoeste 0 1000.9 -2.1 14
2017-07-25 14:00:00 37.6 8 Sur 17 Sur 0 1001.7 -1.6 16
2017-07-25 13:00:00 35.4 0 Calma 17 Este 0 1002.5 -1 19
2017-07-25 12:00:00 33.3 8 Este 18 Este 0 1003 -0.4 23
2017-07-25 11:00:00 30.5 4 Nordeste 11 Nordeste 0 1003.3 0.2 31
2017-07-25 10:00:00 27.3 2 Este 8 Este 0 1003.5 0.7 42
2017-07-25 09:00:00 24 0 Calma -- -- 0 1003.4 0.7 54
2017-07-25 08:00:00 19.9 0 Calma -- -- 0 1003.1 0.2 67
2017-07-25 07:00:00 19.4 0 Calma -- -- 0 1002.8 -0.6 70
2017-07-25 06:00:00 20.4 0 Calma 4 Sudoeste 0 1002.7 -0.9 67
2017-07-25 05:00:00 21.4 0 Calma 8 Oeste 0 1002.9 -0.8 61
2017-07-25 04:00:00 22.5 0 Calma 9 Oeste 0 1003.4 -0.3 56
2017-07-25 03:00:00 23.4 5 Oeste 11 Oeste 0 1003.6 0 55
2017-07-25 02:00:00 26.1 4 Sudoeste 17 Sudoeste 0 1003.7 0.5 44
2017-07-25 01:00:00 26.8 10 Oeste 18 Oeste 0 1003.7 1.1 41
2017-07-25 00:00:00 29.1 6 Sudoeste 22 Oeste 0 1003.6 1.3 34
2017-07-24 23:00:00 30.1 10 Sudoeste 18 Oeste 0 1003.2 1.2 24
2017-07-24 22:00:00 31 10 Noroeste 21 Noroeste 0 1002.6 0.5 23
2017-07-24 21:00:00 37 10 Oeste 28 Noroeste 0 1002.3 0 13
2017-07-24 20:00:00 39.2 14 Oeste 30 Sudoeste 0 1002 -1 12
2017-07-24 19:00:00 40 23 Sudoeste 39 Sudoeste 0 1002.1 -1.5 13
2017-07-24 18:00:00 40.3 21 Sudoeste 35 Oeste 0 1002.3 -2.3 13
2017-07-24 17:00:00 40 17 Sudoeste 33 Sudoeste 0 1003 -2.4 14
2017-07-24 16:00:00 39.1 17 Sudoeste 35 Oeste 0 1003.6 -2.6 16
2017-07-24 15:00:00 38.3 18 Sudoeste 30 Oeste 0 1004.6 -2.2 16
2017-07-24 14:00:00 36.5 12 Sudoeste 22 Oeste 0 1005.4 -1.9 22
2017-07-24 13:00:00 34.3 8 Oeste 17 Sudoeste 0 1006.2 -1.3 24
2017-07-24 12:00:00 31.6 3 Oeste 13 Sudoeste 0 1006.8 -0.7 29
2017-07-24 11:00:00 29.3 2 Sur 8 Sur 0 1007.3 0 32
2017-07-24 10:00:00 26.1 0 Calma 5 Oeste 0 1007.5 0.5 38
2017-07-24 09:00:00 22.8 0 Calma 4 Oeste 0 1007.5 0.9 48
2017-07-24 08:00:00 19.3 0 Calma -- -- 0 1007.3 0.5 62
2017-07-24 07:00:00 18.3 0 Calma -- -- 0 1007 0.1 67
2017-07-24 06:00:00 19.3 0 Calma 4 Sudoeste 0 1006.6 -0.4 59
2017-07-24 05:00:00 20.5 0 Calma 5 Oeste 0 1006.8 -0.2 55
2017-07-24 04:00:00 21.6 6 Oeste 17 Sudoeste 0 1006.9 0.2 50
2017-07-24 03:00:00 23.6 9 Sudoeste 17 Sudoeste 0 1007 0.8 42
2017-07-24 02:00:00 24.9 9 Sudoeste 15 Sudoeste 0 1007 1.3 41
2017-07-24 01:00:00 26.3 9 Sudoeste 15 Oeste 0 1006.7 2.2 40
2017-07-24 00:00:00 28.2 11 Oeste 21 Oeste 0 1006.2 2.3 33
2017-07-23 23:00:00 30.4 16 Oeste 28 Oeste 0 1005.7 2.2 28
2017-07-23 22:00:00 31.9 12 Oeste 17 Oeste 0 1004.5 1 24
2017-07-23 21:00:00 35.8 13 Oeste 22 Oeste 0 1003.9 0 18
2017-07-23 20:00:00 37.5 15 Oeste 24 Oeste 0 1003.5 -1.1 18
2017-07-23 19:00:00 39.1 12 Sudoeste 24 Oeste 0 1003.5 -1.7 12
2017-07-23 18:00:00 39 9 Sudoeste 24 Oeste 0 1003.9 -2.1 11
2017-07-23 17:00:00 38.9 8 Sudoeste 22 Sudoeste 0 1004.6 -2.1 13
2017-07-23 16:00:00 38 4 Sudoeste 22 Este 0 1005.2 -1.9 14
2017-07-23 15:00:00 36.7 10 Sur 21 Sudoeste 0 1006 -1.4 15
2017-07-23 14:00:00 34.5 9 Sudoeste 18 Sudoeste 0 1006.7 -0.5 22
2017-07-23 13:00:00 32.2 6 Sudoeste 21 Oeste 0 1007.1 -0.3 26
2017-07-23 12:00:00 30.2 2 Sudoeste 11 Sur 0 1007.4 0.2 30
2017-07-23 11:00:00 27.6 3 Sudeste 11 Oeste 0 1007.2 0.5 40
2017-07-23 10:00:00 24.5 3 Sudoeste 8 Sudoeste 0 1007.4 1.2 49
2017-07-23 09:00:00 21.6 2 Sudoeste 5 Sudoeste 0 1007.2 1.3 56
2017-07-23 08:00:00 18.6 0 Calma 4 Noroeste 0 1006.7 1.2 70
2017-07-23 07:00:00 17.9 0 Calma -- -- 0 1006.2 0.8 75
2017-07-23 06:00:00 19.1 5 Sur 8 Sur 0 1005.9 0.3 67
2017-07-23 05:00:00 19.8 6 Sudoeste 11 Sur 0 1005.5 0.1 62
2017-07-23 04:00:00 20.4 8 Oeste 13 Oeste 0 1005.4 0.4 59
2017-07-23 03:00:00 21.7 5 Oeste 15 Oeste 0 1005.6 1.6 53
2017-07-23 02:00:00 22.9 6 Oeste 13 Oeste 0 1005.4 2 48
2017-07-23 01:00:00 24.7 5 Oeste 21 Sudoeste 0 1005 2.6 40
2017-07-23 00:00:00 25.4 12 Sudoeste 17 Oeste 0 1004 2.3 34